Time;durP1;ratioP1;P1;durP2;ratioP2;P2;SDS_P1;SDS_P2;PMS_P1;PMS_P2;Temp;Humidity;BMP_temperature;BMP_pressure;BME280_temperature;BME280_humidity;BME280_pressure;Samples;Min_cycle;Max_cycle;Signal;HPM_P1;HPM_P2
2023/10/27 00:01:53;;;;;;;21.17;18.95;;;13.60;99.90;;;;;;5002131;28;20124;-73
2023/10/27 00:04:21;;;;;;;17.40;15.93;;;13.60;99.90;;;;;;5002561;28;20190;-72
2023/10/27 00:06:50;;;;;;;17.25;15.48;;;13.70;99.90;;;;;;5003531;28;20045;-71
2023/10/27 00:09:19;;;;;;;15.32;13.93;;;13.60;99.90;;;;;;5017917;28;20564;-72
2023/10/27 00:11:48;;;;;;;18.90;16.95;;;13.60;99.90;;;;;;5002181;28;20156;-71
2023/10/27 00:14:16;;;;;;;17.73;16.23;;;13.70;99.90;;;;;;5022543;28;20064;-73
2023/10/27 00:16:45;;;;;;;16.83;15.30;;;13.70;99.90;;;;;;4999728;28;20053;-71
2023/10/27 00:19:13;;;;;;;16.45;14.85;;;13.70;99.90;;;;;;5003774;28;20053;-72
2023/10/27 00:21:41;;;;;;;17.17;15.68;;;13.60;99.90;;;;;;5018843;28;20057;-71
2023/10/27 00:24:10;;;;;;;14.30;12.93;;;13.60;99.90;;;;;;5012376;28;20828;-72
2023/10/27 00:26:40;;;;;;;21.45;17.08;;;13.70;99.90;;;;;;5011176;28;20068;-71
2023/10/27 00:29:08;;;;;;;19.70;17.20;;;13.60;99.90;;;;;;5001770;28;21172;-72
2023/10/27 00:31:36;;;;;;;15.65;14.00;;;13.70;99.90;;;;;;5011129;28;20080;-71
2023/10/27 00:34:05;;;;;;;17.80;16.30;;;13.70;99.90;;;;;;5031156;28;20049;-72
2023/10/27 00:36:33;;;;;;;19.70;17.83;;;13.70;99.90;;;;;;5028507;28;20448;-71
2023/10/27 00:39:03;;;;;;;14.63;13.27;;;13.70;99.90;;;;;;5000251;28;20064;-72
2023/10/27 00:41:31;;;;;;;14.15;12.82;;;13.70;99.90;;;;;;4994207;28;20049;-73
2023/10/27 00:44:02;;;;;;;18.85;17.15;;;13.70;99.90;;;;;;5021692;28;20049;-71
2023/10/27 00:46:30;;;;;;;17.20;15.60;;;13.70;99.90;;;;;;5002040;28;20143;-71
2023/10/27 00:48:59;;;;;;;18.38;16.85;;;13.70;99.90;;;;;;5020763;28;20049;-71
2023/10/27 00:51:27;;;;;;;15.98;14.35;;;13.70;99.90;;;;;;5032124;28;20114;-71
2023/10/27 00:53:57;;;;;;;14.55;13.25;;;13.70;99.90;;;;;;5007820;28;20516;-71
2023/10/27 00:56:26;;;;;;;17.65;15.88;;;13.70;99.90;;;;;;5018246;28;20204;-71
2023/10/27 00:58:55;;;;;;;15.82;14.32;;;13.70;99.90;;;;;;4997300;28;20180;-71
2023/10/27 01:01:25;;;;;;;15.38;13.88;;;13.70;99.90;;;;;;5003875;28;22471;-72
2023/10/27 01:03:56;;;;;;;16.23;14.68;;;13.70;99.90;;;;;;5004628;28;20075;-71
2023/10/27 01:06:26;;;;;;;15.18;13.82;;;13.70;99.90;;;;;;5013926;28;20088;-71
2023/10/27 01:08:55;;;;;;;18.15;15.98;;;13.70;99.90;;;;;;5030540;28;20146;-71
2023/10/27 01:11:25;;;;;;;15.88;14.43;;;13.80;99.90;;;;;;5022634;28;24187;-71
2023/10/27 01:13:53;;;;;;;13.48;11.73;;;13.80;99.90;;;;;;5021373;28;20044;-72
2023/10/27 01:16:23;;;;;;;12.65;11.48;;;13.80;99.90;;;;;;5020906;28;20053;-71
2023/10/27 01:18:53;;;;;;;18.08;16.55;;;13.80;99.90;;;;;;5004270;28;20179;-71
2023/10/27 01:21:21;;;;;;;16.48;15.30;;;13.80;99.90;;;;;;5021321;28;20053;-71
2023/10/27 01:23:51;;;;;;;15.52;14.05;;;13.90;99.90;;;;;;5017081;28;20048;-71
2023/10/27 01:26:20;;;;;;;13.48;12.20;;;13.90;99.90;;;;;;5006545;28;20132;-72
2023/10/27 01:28:48;;;;;;;14.45;13.32;;;13.90;99.90;;;;;;5025230;28;20199;-73
2023/10/27 01:31:17;;;;;;;16.20;14.38;;;13.90;99.90;;;;;;5039284;28;20154;-72
2023/10/27 01:33:46;;;;;;;14.73;13.32;;;14.00;99.90;;;;;;5031057;28;20069;-72
2023/10/27 01:36:14;;;;;;;20.20;11.95;;;14.00;99.90;;;;;;5018025;28;20049;-71
2023/10/27 01:38:43;;;;;;;17.38;15.82;;;13.90;99.90;;;;;;5027165;28;20050;-72
2023/10/27 01:41:13;;;;;;;12.32;11.23;;;14.00;99.90;;;;;;5023931;28;20041;-73
2023/10/27 01:43:41;;;;;;;15.25;13.95;;;14.00;99.90;;;;;;5010745;28;20740;-74
2023/10/27 01:46:10;;;;;;;18.25;16.40;;;14.00;99.90;;;;;;5020456;28;20054;-72
2023/10/27 01:48:38;;;;;;;16.92;15.30;;;14.00;99.90;;;;;;5024780;28;21046;-73
2023/10/27 01:51:07;;;;;;;16.02;14.85;;;14.00;99.90;;;;;;5043321;28;20507;-76
2023/10/27 01:53:36;;;;;;;14.15;12.77;;;14.00;99.90;;;;;;5017375;28;20179;-73
2023/10/27 01:56:05;;;;;;;14.73;13.32;;;14.10;99.90;;;;;;5020570;28;20082;-73
2023/10/27 01:58:34;;;;;;;13.27;11.57;;;14.10;99.90;;;;;;5020745;28;20155;-74
2023/10/27 02:01:02;;;;;;;14.02;12.70;;;14.00;99.90;;;;;;5029898;28;20041;-73
2023/10/27 02:03:32;;;;;;;17.40;12.93;;;14.10;99.90;;;;;;5019163;28;20045;-74
2023/10/27 02:06:01;;;;;;;19.23;17.27;;;14.10;99.90;;;;;;5027965;28;20959;-74
2023/10/27 02:08:29;;;;;;;14.50;13.13;;;14.10;99.90;;;;;;5024572;28;20053;-77
2023/10/27 02:10:58;;;;;;;23.13;21.23;;;12.90;99.90;;;;;;5019570;28;20507;-77
2023/10/27 02:13:26;;;;;;;19.23;14.18;;;14.10;99.90;;;;;;5025411;28;20057;-73
2023/10/27 02:15:56;;;;;;;12.00;11.10;;;14.10;99.90;;;;;;5004148;28;20045;-73
2023/10/27 02:18:25;;;;;;;15.77;14.52;;;14.20;99.90;;;;;;5026946;28;20056;-74
2023/10/27 02:20:53;;;;;;;12.50;11.40;;;14.20;99.90;;;;;;5027378;28;20049;-73
2023/10/27 02:23:22;;;;;;;19.15;14.95;;;14.20;99.90;;;;;;5024002;28;20064;-75
2023/10/27 02:25:52;;;;;;;15.57;12.68;;;14.20;99.90;;;;;;5033147;28;20045;-75
2023/10/27 02:28:21;;;;;;;13.82;12.80;;;14.20;99.90;;;;;;5017599;28;20060;-72
2023/10/27 02:30:50;;;;;;;13.35;12.20;;;14.20;99.90;;;;;;5009400;28;20052;-78
2023/10/27 02:33:20;;;;;;;12.90;10.07;;;14.20;99.90;;;;;;5021259;28;20057;-76
2023/10/27 02:35:49;;;;;;;10.55;9.73;;;14.20;99.90;;;;;;5026574;28;20060;-75
2023/10/27 02:38:17;;;;;;;12.48;11.38;;;14.20;99.90;;;;;;5027053;28;22252;-75
2023/10/27 02:40:46;;;;;;;16.52;15.18;;;14.20;99.90;;;;;;5025774;28;20552;-75
2023/10/27 02:43:14;;;;;;;10.43;9.55;;;14.20;99.90;;;;;;5025914;28;20057;-78
2023/10/27 02:45:43;;;;;;;14.23;12.95;;;14.30;99.90;;;;;;5024819;28;20052;-76
2023/10/27 02:48:12;;;;;;;9.98;9.10;;;14.30;99.90;;;;;;5026208;28;20456;-75
2023/10/27 02:50:42;;;;;;;14.02;12.57;;;14.30;99.90;;;;;;5030548;28;20041;-76
2023/10/27 02:53:10;;;;;;;16.85;15.10;;;14.30;99.90;;;;;;5022930;28;20122;-80
2023/10/27 02:55:38;;;;;;;16.70;11.07;;;14.30;99.90;;;;;;5026033;28;20053;-79
2023/10/27 02:58:07;;;;;;;15.05;13.68;;;14.30;99.90;;;;;;5021039;28;22432;-79
2023/10/27 03:00:36;;;;;;;10.55;9.43;;;13.80;99.90;;;;;;5021027;28;20052;-79
2023/10/27 03:03:04;;;;;;;13.13;10.95;;;14.30;99.90;;;;;;5027180;28;20053;-80
2023/10/27 03:05:33;;;;;;;10.57;9.63;;;14.30;99.90;;;;;;5024791;28;20068;-81
2023/10/27 03:08:03;;;;;;;12.52;11.57;;;14.30;99.90;;;;;;5027276;28;20408;-79
2023/10/27 03:10:32;;;;;;;15.27;14.18;;;14.30;99.90;;;;;;5025992;28;20110;-81
2023/10/27 03:13:00;;;;;;;20.00;16.30;;;14.30;99.90;;;;;;5019173;28;20052;-80
2023/10/27 03:15:29;;;;;;;14.32;12.27;;;14.30;99.90;;;;;;5010438;28;20819;-80
2023/10/27 03:17:57;;;;;;;11.73;10.65;;;14.30;99.90;;;;;;5003246;28;20071;-79
2023/10/27 03:20:26;;;;;;;18.40;16.55;;;14.30;99.90;;;;;;5024283;28;20053;-79
2023/10/27 03:22:54;;;;;;;16.10;14.55;;;14.30;99.90;;;;;;5010349;28;20040;-81
2023/10/27 03:25:24;;;;;;;22.83;19.13;;;14.30;99.90;;;;;;5028322;28;20489;-76
2023/10/27 03:27:53;;;;;;;12.90;12.00;;;14.30;99.90;;;;;;5016514;28;22534;-78
2023/10/27 03:30:22;;;;;;;13.82;12.63;;;14.30;99.90;;;;;;5019751;28;22997;-77
2023/10/27 03:32:50;;;;;;;11.45;8.77;;;14.30;99.90;;;;;;5016630;28;20336;-79
2023/10/27 03:35:19;;;;;;;11.30;10.15;;;14.30;99.90;;;;;;5023803;28;20716;-78
2023/10/27 03:37:47;;;;;;;13.18;12.10;;;14.30;99.90;;;;;;5033496;28;20060;-78
2023/10/27 03:40:17;;;;;;;14.25;12.85;;;14.30;99.90;;;;;;5018560;28;20053;-78
2023/10/27 03:42:47;;;;;;;15.75;14.25;;;14.30;99.90;;;;;;5035461;28;20057;-78
2023/10/27 03:45:15;;;;;;;15.07;12.48;;;14.30;99.90;;;;;;5021088;28;20119;-78
2023/10/27 03:47:44;;;;;;;12.20;11.05;;;14.30;99.90;;;;;;5001370;28;20138;-78
2023/10/27 03:50:13;;;;;;;16.23;15.05;;;14.30;99.90;;;;;;5020845;28;20707;-79
2023/10/27 03:52:42;;;;;;;13.50;12.30;;;14.30;99.90;;;;;;5019110;28;20053;-79
2023/10/27 03:55:11;;;;;;;14.50;13.02;;;14.30;99.90;;;;;;5007568;28;20063;-77
2023/10/27 03:57:42;;;;;;;21.55;19.80;;;14.30;99.90;;;;;;5018440;28;20091;-77
2023/10/27 04:00:13;;;;;;;14.57;13.32;;;14.30;99.90;;;;;;5006352;28;20060;-77
2023/10/27 04:02:43;;;;;;;22.15;20.50;;;14.30;99.90;;;;;;5020373;28;20194;-77
2023/10/27 04:05:12;;;;;;;19.23;17.27;;;14.30;99.90;;;;;;5024043;28;20052;-75
2023/10/27 04:07:41;;;;;;;13.75;12.75;;;14.30;99.90;;;;;;5025382;28;20053;-79
2023/10/27 04:10:10;;;;;;;14.68;13.30;;;14.40;99.90;;;;;;5025142;28;20537;-78
2023/10/27 04:12:39;;;;;;;23.15;21.38;;;14.30;99.90;;;;;;5023580;28;20423;-75
2023/10/27 04:15:11;;;;;;;150.45;133.60;;;14.30;99.90;;;;;;5024566;28;20607;-79
2023/10/27 04:17:39;;;;;;;14.25;13.07;;;14.40;99.90;;;;;;5009215;28;20048;-77
2023/10/27 04:20:09;;;;;;;9.32;8.57;;;14.30;99.90;;;;;;5024626;28;20501;-79
2023/10/27 04:22:38;;;;;;;46.08;41.58;;;14.30;99.90;;;;;;5032276;28;20049;-78
2023/10/27 04:25:06;;;;;;;150.88;135.23;;;14.40;99.90;;;;;;5018926;28;20063;-75
2023/10/27 04:27:35;;;;;;;60.03;54.75;;;14.30;99.90;;;;;;5015278;28;20045;-78
2023/10/27 04:30:07;;;;;;;9.18;8.38;;;14.30;99.90;;;;;;5024018;28;20179;-78
2023/10/27 04:32:39;;;;;;;22.75;20.55;;;14.30;99.90;;;;;;5009081;28;20041;-75
2023/10/27 04:35:09;;;;;;;;;;;14.40;99.90;;;;;;5023356;28;20187;-79
2023/10/27 04:37:38;;;;;;;18.45;17.05;;;14.30;99.90;;;;;;5024107;28;20835;-76
2023/10/27 04:40:08;;;;;;;15.73;14.35;;;14.30;99.90;;;;;;5006736;28;20056;-77
2023/10/27 04:42:37;;;;;;;13.32;12.18;;;14.40;99.90;;;;;;5018718;28;20057;-77
2023/10/27 04:45:07;;;;;;;21.52;19.23;;;14.30;99.90;;;;;;5017585;28;20079;-78
2023/10/27 04:47:38;;;;;;;21.63;19.42;;;14.30;99.90;;;;;;5017134;28;20241;-79
2023/10/27 04:50:09;;;;;;;10.40;9.45;;;14.30;99.90;;;;;;5016957;28;20052;-74
2023/10/27 04:52:38;;;;;;;600.63;549.35;;;14.30;99.90;;;;;;5002328;28;20118;-75
2023/10/27 04:55:08;;;;;;;15.70;14.52;;;14.30;99.90;;;;;;5025624;28;20140;-77
2023/10/27 04:57:41;;;;;;;83.90;67.35;;;14.30;99.90;;;;;;5025749;28;20060;-73
2023/10/27 05:00:11;;;;;;;9.07;8.18;;;14.30;99.90;;;;;;5012848;28;20048;-77
2023/10/27 05:02:41;;;;;;;15.68;14.68;;;14.30;99.90;;;;;;5006797;28;21117;-79
2023/10/27 05:05:11;;;;;;;12.48;11.40;;;14.30;99.90;;;;;;5027229;28;20049;-77
2023/10/27 05:07:42;;;;;;;10.37;9.63;;;14.30;99.90;;;;;;5023741;28;22447;-75
2023/10/27 05:10:10;;;;;;;12.07;11.00;;;14.30;99.90;;;;;;5018920;28;20106;-76
2023/10/27 05:12:39;;;;;;;119.57;109.43;;;14.30;99.90;;;;;;5018097;28;20101;-75
2023/10/27 05:15:09;;;;;;;22.58;20.40;;;14.30;99.90;;;;;;5017752;28;20540;-75
2023/10/27 05:17:38;;;;;;;17.98;16.33;;;14.20;99.90;;;;;;5008398;28;20049;-79
2023/10/27 05:20:10;;;;;;;10.00;9.07;;;14.30;99.90;;;;;;4996079;28;20053;-80
2023/10/27 05:22:39;;;;;;;9.88;9.07;;;14.20;99.90;;;;;;5010815;28;20056;-76
2023/10/27 05:25:08;;;;;;;13.25;11.57;;;14.30;99.90;;;;;;4994919;28;20049;-75
2023/10/27 05:27:37;;;;;;;20.48;18.83;;;14.20;99.90;;;;;;5018961;28;20511;-75
2023/10/27 05:30:07;;;;;;;17.75;16.20;;;14.30;99.90;;;;;;5012269;28;20183;-77
2023/10/27 05:32:35;;;;;;;18.80;16.75;;;14.20;99.90;;;;;;5002728;28;22470;-77
2023/10/27 05:35:04;;;;;;;22.83;20.77;;;14.20;99.90;;;;;;5005423;28;20049;-76
2023/10/27 05:37:34;;;;;;;55.30;50.25;;;14.30;99.90;;;;;;5012652;28;20046;-75
2023/10/27 05:40:04;;;;;;;54.72;49.58;;;14.20;99.90;;;;;;4998450;28;20048;-77
2023/10/27 05:42:32;;;;;;;8.65;7.88;;;14.30;99.90;;;;;;5009130;28;20058;-76
2023/10/27 05:45:03;;;;;;;82.78;61.88;;;14.20;99.90;;;;;;5014508;28;20065;-77
2023/10/27 05:47:32;;;;;;;181.05;154.50;;;14.30;99.90;;;;;;5007300;28;20053;-78
2023/10/27 05:50:00;;;;;;;13.35;12.50;;;14.20;99.90;;;;;;5025207;28;20532;-77
2023/10/27 05:52:29;;;;;;;10.88;9.95;;;14.30;99.90;;;;;;5021721;28;20049;-76
2023/10/27 05:54:59;;;;;;;12.50;11.63;;;14.30;99.90;;;;;;5015555;28;20539;-74
2023/10/27 05:57:28;;;;;;;24.17;21.38;;;14.30;99.90;;;;;;5015183;28;20523;-72
2023/10/27 05:59:56;;;;;;;17.20;15.82;;;14.30;99.90;;;;;;4997495;28;20125;-76
2023/10/27 06:02:25;;;;;;;46.85;42.50;;;14.30;99.90;;;;;;4999788;28;20105;-76
2023/10/27 06:04:53;;;;;;;12.32;11.18;;;14.30;99.90;;;;;;5001435;28;20237;-76
2023/10/27 06:07:22;;;;;;;14.23;13.38;;;14.30;99.90;;;;;;4997039;28;20136;-75
2023/10/27 06:09:51;;;;;;;126.18;107.47;;;14.30;99.90;;;;;;5007291;28;20055;-77
2023/10/27 06:12:20;;;;;;;17.50;16.02;;;14.30;99.90;;;;;;5024774;28;20051;-78
2023/10/27 06:14:52;;;;;;;14.70;13.60;;;14.30;99.90;;;;;;5009713;28;20053;-78
2023/10/27 06:17:20;;;;;;;17.92;16.55;;;14.30;99.90;;;;;;5026579;28;20806;-80
2023/10/27 06:19:49;;;;;;;18.20;16.00;;;14.30;99.90;;;;;;5025915;28;20131;-78
2023/10/27 06:22:32;;;;;;;16.63;15.45;;;14.40;99.90;;;;;;5021552;28;20057;-78
2023/10/27 06:25:01;;;;;;;12.23;11.18;;;14.40;99.90;;;;;;5010511;28;20118;-75
2023/10/27 06:27:31;;;;;;;23.20;21.05;;;14.30;99.90;;;;;;5011025;28;22680;-78
2023/10/27 06:30:00;;;;;;;120.68;110.63;;;14.30;99.90;;;;;;5019265;28;20049;-76
2023/10/27 06:32:28;;;;;;;19.02;17.38;;;14.30;99.90;;;;;;5008200;28;22243;-75
2023/10/27 06:34:57;;;;;;;34.47;28.77;;;14.30;99.90;;;;;;5005914;28;20968;-77
2023/10/27 06:37:26;;;;;;;17.70;16.38;;;14.30;99.90;;;;;;5010368;28;20053;-75
2023/10/27 06:39:58;;;;;;;15.63;14.25;;;14.40;99.90;;;;;;4996361;28;20048;-76
2023/10/27 06:42:31;;;;;;;17.42;16.17;;;14.40;99.90;;;;;;5005883;28;20111;-76
2023/10/27 06:45:03;;;;;;;23.35;21.60;;;14.40;99.90;;;;;;5013574;28;20040;-77
2023/10/27 06:47:32;;;;;;;304.98;272.38;;;14.40;99.90;;;;;;5004959;28;20079;-75
2023/10/27 06:50:02;;;;;;;18.08;16.58;;;14.40;99.90;;;;;;4995728;28;20124;-74
2023/10/27 06:52:31;;;;;;;138.82;100.93;;;14.40;99.90;;;;;;5009837;28;20819;-74
2023/10/27 06:55:00;;;;;;;225.00;209.10;;;14.40;99.90;;;;;;5011133;28;20072;-72
2023/10/27 06:57:32;;;;;;;21.58;19.92;;;14.40;99.90;;;;;;5013518;28;20148;-78
2023/10/27 07:00:01;;;;;;;17.33;15.95;;;14.40;99.90;;;;;;5004937;28;20065;-73
2023/10/27 07:02:29;;;;;;;10.38;9.45;;;14.40;99.90;;;;;;4995201;28;20045;-75
2023/10/27 07:05:17;;;;;;;109.70;79.10;;;14.50;99.90;;;;;;5010587;28;22494;-73
2023/10/27 07:07:46;;;;;;;94.65;86.30;;;14.40;99.90;;;;;;5005609;28;20052;-76
2023/10/27 07:10:15;;;;;;;193.63;172.63;;;14.50;99.90;;;;;;5001186;28;20412;-74
2023/10/27 07:12:46;;;;;;;11.90;10.90;;;14.50;99.90;;;;;;5012678;28;20199;-75
2023/10/27 07:15:16;;;;;;;16.88;15.45;;;14.50;99.90;;;;;;5029350;28;20045;-75
2023/10/27 07:17:44;;;;;;;130.77;118.53;;;14.50;99.90;;;;;;4993419;28;20052;-75
2023/10/27 07:20:13;;;;;;;16.50;15.13;;;14.50;99.90;;;;;;4993100;28;20048;-78
2023/10/27 07:22:41;;;;;;;13.90;12.80;;;14.50;99.90;;;;;;4996531;28;20064;-76
2023/10/27 07:25:13;;;;;;;10.77;9.85;;;14.50;99.90;;;;;;4998082;28;20045;-78
2023/10/27 07:27:44;;;;;;;15.38;14.07;;;14.40;99.90;;;;;;5011326;28;20057;-76
2023/10/27 07:30:15;;;;;;;9.35;8.50;;;14.50;99.90;;;;;;5028944;28;20210;-75
2023/10/27 07:32:45;;;;;;;11.87;10.93;;;14.60;99.90;;;;;;5034243;28;20404;-73
2023/10/27 07:35:13;;;;;;;17.00;15.60;;;14.50;99.90;;;;;;5025439;28;20093;-73
2023/10/27 07:37:42;;;;;;;21.98;20.10;;;14.60;99.90;;;;;;5008574;28;20194;-75
2023/10/27 07:40:13;;;;;;;12.40;11.38;;;14.60;99.90;;;;;;5030077;28;20436;-77
2023/10/27 07:42:43;;;;;;;18.73;17.38;;;14.60;99.90;;;;;;5011369;28;20182;-77
2023/10/27 07:45:14;;;;;;;18.42;16.88;;;14.60;99.90;;;;;;5019994;28;20392;-76
2023/10/27 07:47:45;;;;;;;185.25;170.55;;;14.60;99.90;;;;;;5025208;28;22209;-74
2023/10/27 07:50:17;;;;;;;249.77;231.95;;;14.60;99.90;;;;;;4994062;28;20056;-74
2023/10/27 07:52:49;;;;;;;24.13;22.30;;;14.60;99.90;;;;;;5021160;28;20059;-75
2023/10/27 07:55:20;;;;;;;151.52;139.73;;;14.60;99.90;;;;;;5005232;28;22064;-73
2023/10/27 07:57:50;;;;;;;172.30;158.57;;;14.60;99.90;;;;;;5016460;28;20040;-79
2023/10/27 08:00:23;;;;;;;29.08;26.45;;;14.60;99.90;;;;;;4996423;28;20056;-80
2023/10/27 08:02:52;;;;;;;26.02;23.17;;;14.70;99.90;;;;;;5009277;28;20740;-77
2023/10/27 08:05:21;;;;;;;84.40;75.57;;;14.70;99.90;;;;;;5016498;28;20086;-75
2023/10/27 08:07:50;;;;;;;6.43;5.72;;;14.70;99.90;;;;;;5014143;28;20045;-73
2023/10/27 08:10:20;;;;;;;15.80;14.70;;;14.70;99.90;;;;;;5021251;28;20282;-74
2023/10/27 08:12:49;;;;;;;7.07;5.20;;;14.70;99.90;;;;;;5022295;28;20147;-76
2023/10/27 08:15:18;;;;;;;188.85;169.68;;;14.80;99.90;;;;;;4998092;28;20781;-72
2023/10/27 08:17:47;;;;;;;39.28;35.28;;;14.80;99.90;;;;;;5019681;28;20051;-72
2023/10/27 08:20:17;;;;;;;360.60;330.42;;;14.80;99.90;;;;;;5019921;28;20142;-72
2023/10/27 08:22:46;;;;;;;119.10;106.55;;;14.80;99.90;;;;;;5008375;28;20792;-72
2023/10/27 08:25:14;;;;;;;5.60;3.92;;;14.80;99.90;;;;;;5007548;28;20199;-76
2023/10/27 08:27:43;;;;;;;93.88;85.28;;;14.80;99.90;;;;;;4995809;28;20071;-73
2023/10/27 08:30:13;;;;;;;13.95;12.85;;;14.80;99.90;;;;;;4995653;28;20158;-76
2023/10/27 08:32:42;;;;;;;16.40;15.25;;;14.80;99.90;;;;;;5010906;28;20053;-73
2023/10/27 08:35:12;;;;;;;120.93;112.05;;;14.80;99.90;;;;;;5005546;28;20044;-72
2023/10/27 08:37:41;;;;;;;11.27;9.90;;;14.80;99.90;;;;;;5008156;28;20080;-75
2023/10/27 08:40:13;;;;;;;14.82;13.43;;;14.80;99.90;;;;;;4995440;28;20804;-76
2023/10/27 08:42:44;;;;;;;11.48;10.50;;;14.80;99.90;;;;;;5023234;28;20056;-75
2023/10/27 08:45:13;;;;;;;11.45;10.35;;;14.80;99.90;;;;;;4993488;28;20918;-77
2023/10/27 08:47:42;;;;;;;92.60;81.32;;;14.80;99.90;;;;;;4997324;28;20045;-76
2023/10/27 08:50:12;;;;;;;258.30;240.63;;;14.80;99.90;;;;;;5009391;28;20042;-78
2023/10/27 08:52:41;;;;;;;21.25;19.70;;;14.80;99.90;;;;;;5010863;28;20732;-78
2023/10/27 08:55:11;;;;;;;22.48;20.83;;;14.80;99.90;;;;;;5009001;28;20053;-74
2023/10/27 08:57:39;;;;;;;323.38;300.58;;;14.80;99.90;;;;;;4994668;28;20167;-78
2023/10/27 09:00:09;;;;;;;45.92;31.90;;;14.80;99.90;;;;;;5013530;28;20537;-72
2023/10/27 09:02:38;;;;;;;65.88;54.63;;;14.80;99.90;;;;;;5008004;28;20134;-75
2023/10/27 09:05:09;;;;;;;12.05;10.77;;;14.80;99.90;;;;;;5006997;28;20401;-73
2023/10/27 09:07:39;;;;;;;24.67;21.48;;;14.80;99.90;;;;;;5001412;28;20053;-74
2023/10/27 09:10:09;;;;;;;142.82;129.10;;;14.80;99.90;;;;;;4997307;28;20040;-69
2023/10/27 09:12:38;;;;;;;270.95;242.00;;;14.90;99.90;;;;;;4993581;28;22306;-73
2023/10/27 09:15:07;;;;;;;36.88;33.53;;;14.80;99.90;;;;;;5000745;28;20050;-74
2023/10/27 09:17:53;;;;;;;7.00;6.38;;;14.90;99.90;;;;;;5012229;28;20076;-72
2023/10/27 09:20:23;;;;;;;17.52;15.85;;;14.90;99.90;;;;;;4997572;28;20618;-72
2023/10/27 09:23:01;;;;;;;301.35;273.17;;;15.00;99.90;;;;;;5011862;28;22239;-76
2023/10/27 09:25:31;;;;;;;5.97;5.03;;;14.90;99.90;;;;;;5006204;28;20408;-74
2023/10/27 09:28:01;;;;;;;24.65;22.17;;;15.00;99.90;;;;;;5005282;28;20060;-71
2023/10/27 09:30:33;;;;;;;81.03;73.40;;;15.00;99.90;;;;;;4996133;28;20057;-72
2023/10/27 09:33:13;;;;;;;166.38;151.93;;;15.00;99.90;;;;;;5000377;28;20056;-73
2023/10/27 09:35:42;;;;;;;340.90;305.55;;;15.10;99.90;;;;;;4997020;28;20189;-72
2023/10/27 09:38:13;;;;;;;273.98;253.13;;;15.10;99.90;;;;;;5027609;28;20069;-72
2023/10/27 09:40:43;;;;;;;16.67;14.93;;;15.10;99.90;;;;;;5007860;28;20103;-73
2023/10/27 09:43:17;;;;;;;9.15;8.35;;;15.10;99.90;;;;;;5012358;28;22438;-71
2023/10/27 09:45:53;;;;;;;28.17;23.67;;;15.10;99.90;;;;;;4995996;28;20049;-73
2023/10/27 09:48:26;;;;;;;142.35;130.77;;;15.10;99.90;;;;;;5007533;28;20156;-73
2023/10/27 09:51:02;;;;;;;43.35;38.35;;;15.20;99.90;;;;;;5001888;28;20056;-73
2023/10/27 09:53:32;;;;;;;283.35;254.25;;;15.10;99.90;;;;;;5029736;28;20045;-72
2023/10/27 09:56:02;;;;;;;526.80;473.98;;;15.20;99.90;;;;;;4995914;28;20521;-71
2023/10/27 09:58:33;;;;;;;94.60;88.35;;;15.20;99.90;;;;;;5010629;28;20083;-72
2023/10/27 10:01:02;;;;;;;129.88;117.55;;;15.20;99.90;;;;;;5004581;28;20064;-73
2023/10/27 10:03:32;;;;;;;192.57;173.45;;;15.20;99.90;;;;;;5003399;28;20127;-72
2023/10/27 10:06:12;;;;;;;20.02;18.35;;;15.40;99.90;;;;;;5003162;28;20504;-72
2023/10/27 10:09:05;;;;;;;155.82;140.02;;;15.40;99.90;;;;;;5011240;28;20784;-79
2023/10/27 10:11:37;;;;;;;45.08;34.67;;;15.50;99.90;;;;;;5011205;28;20098;-73
2023/10/27 10:14:06;;;;;;;136.95;122.55;;;15.60;99.90;;;;;;5025996;28;20096;-74
2023/10/27 10:16:45;;;;;;;17.88;16.40;;;15.50;99.90;;;;;;5006340;28;20056;-71
2023/10/27 10:19:49;;;;;;;12.00;10.75;;;15.50;99.90;;;;;;5019927;28;20511;-74
2023/10/27 10:22:51;;;;;;;13.60;12.07;;;15.50;99.90;;;;;;4995010;28;20053;-77
2023/10/27 10:25:28;;;;;;;68.25;61.65;;;15.50;99.90;;;;;;5009241;28;20068;-72
2023/10/27 10:28:25;;;;;;;145.30;130.95;;;15.40;99.90;;;;;;5005154;28;20059;-76
2023/10/27 10:31:24;;;;;;;26.63;24.30;;;15.40;99.90;;;;;;5037397;28;20509;-71
2023/10/27 10:34:11;;;;;;;48.38;42.80;;;15.40;99.90;;;;;;5004283;28;20052;-71
2023/10/27 10:36:41;;;;;;;17.98;16.50;;;15.50;99.90;;;;;;5013030;28;20049;-72
2023/10/27 10:39:11;;;;;;;40.97;36.65;;;15.50;99.90;;;;;;5028223;28;20050;-74
2023/10/27 10:42:04;;;;;;;74.95;68.20;;;15.50;99.90;;;;;;5041483;28;20663;-75
2023/10/27 10:44:33;;;;;;;;;;;15.50;99.90;;;;;;4994519;28;20102;-71
2023/10/27 10:47:03;;;;;;;169.50;138.77;;;15.50;99.90;;;;;;4994524;28;19935;-71
2023/10/27 10:49:33;;;;;;;489.92;434.38;;;15.60;99.90;;;;;;5011303;28;20143;-72
2023/10/27 10:52:02;;;;;;;143.82;130.43;;;15.60;99.90;;;;;;5010664;28;20144;-74
2023/10/27 10:54:32;;;;;;;20.88;16.70;;;15.60;99.90;;;;;;5008918;28;20402;-72
2023/10/27 10:57:09;;;;;;;11.45;9.52;;;15.60;99.90;;;;;;4993146;28;20148;-77
2023/10/27 10:59:37;;;;;;;10.10;6.97;;;15.60;99.90;;;;;;5013163;28;20510;-74
2023/10/27 11:02:08;;;;;;;15.10;12.30;;;15.60;99.90;;;;;;5009136;28;20054;-74
2023/10/27 11:04:37;;;;;;;19.98;17.92;;;15.60;99.90;;;;;;4995345;28;20523;-73
2023/10/27 11:07:08;;;;;;;15.70;14.30;;;15.70;99.90;;;;;;5018024;28;20427;-72
2023/10/27 11:09:37;;;;;;;32.92;29.00;;;15.70;99.90;;;;;;5007584;28;20057;-73
2023/10/27 11:12:08;;;;;;;18.77;16.90;;;15.70;99.90;;;;;;5009701;28;20061;-71
2023/10/27 11:14:41;;;;;;;319.05;285.58;;;15.70;99.90;;;;;;5019784;28;20071;-72
2023/10/27 11:17:11;;;;;;;12.02;10.90;;;15.60;99.90;;;;;;5006390;28;20041;-71
2023/10/27 11:19:54;;;;;;;195.32;139.05;;;15.70;99.90;;;;;;5011131;28;20053;-72
2023/10/27 11:22:27;;;;;;;17.48;15.48;;;15.70;99.90;;;;;;5005971;28;20456;-73
2023/10/27 11:24:56;;;;;;;176.45;158.95;;;15.80;99.90;;;;;;5018857;28;20518;-74
2023/10/27 11:27:27;;;;;;;22.00;18.42;;;15.80;99.90;;;;;;4994321;28;21132;-74
2023/10/27 11:30:00;;;;;;;16.70;15.43;;;15.80;99.90;;;;;;4992086;28;20051;-73
2023/10/27 11:32:29;;;;;;;23.25;18.98;;;15.80;99.90;;;;;;5028414;28;20050;-71
2023/10/27 11:34:58;;;;;;;14.70;13.05;;;15.80;99.90;;;;;;4994018;28;22296;-73
2023/10/27 11:37:29;;;;;;;19.77;17.50;;;15.70;99.90;;;;;;5016713;28;20106;-72
2023/10/27 11:40:12;;;;;;;65.15;47.30;;;15.80;99.90;;;;;;4994478;28;20552;-74
2023/10/27 11:42:42;;;;;;;6.80;5.65;;;15.70;99.90;;;;;;4995345;28;20050;-72
2023/10/27 11:45:10;;;;;;;8.82;6.65;;;15.60;99.90;;;;;;4999441;28;20052;-76
2023/10/27 11:47:39;;;;;;;132.63;107.15;;;15.60;99.90;;;;;;4985831;28;20080;-77
2023/10/27 11:50:09;;;;;;;28.52;24.27;;;15.50;99.90;;;;;;5002133;28;20045;-75
2023/10/27 11:52:38;;;;;;;23.58;21.23;;;15.40;99.90;;;;;;5018935;28;20207;-76
2023/10/27 11:55:07;;;;;;;16.73;14.90;;;15.40;99.90;;;;;;4997441;28;20060;-74
2023/10/27 11:57:36;;;;;;;15.65;14.18;;;15.40;99.90;;;;;;5007452;28;20644;-72
2023/10/27 12:00:08;;;;;;;18.92;17.33;;;15.40;99.90;;;;;;5022527;28;20059;-78
2023/10/27 12:02:40;;;;;;;17.77;15.98;;;15.40;99.90;;;;;;5018800;28;20053;-74
2023/10/27 12:05:09;;;;;;;15.70;14.40;;;15.50;99.90;;;;;;4991528;28;20100;-72
2023/10/27 12:07:39;;;;;;;11.57;10.57;;;15.40;99.90;;;;;;5015120;28;20037;-73
2023/10/27 12:10:09;;;;;;;18.63;16.58;;;15.50;99.90;;;;;;5009771;28;20739;-75
2023/10/27 12:12:39;;;;;;;14.80;13.68;;;15.50;99.90;;;;;;5029351;28;20049;-72
2023/10/27 12:15:14;;;;;;;18.30;16.55;;;15.50;99.90;;;;;;5020465;28;20063;-74
2023/10/27 12:17:44;;;;;;;13.75;12.48;;;15.50;99.90;;;;;;5000462;28;20094;-75
2023/10/27 12:20:13;;;;;;;14.73;13.60;;;15.50;99.90;;;;;;5009411;28;22324;-76
2023/10/27 12:22:45;;;;;;;15.80;14.38;;;15.50;99.90;;;;;;5009218;28;20731;-75
2023/10/27 12:25:14;;;;;;;;;;;15.50;99.90;;;;;;4993787;28;20626;-73
2023/10/27 12:27:43;;;;;;;18.98;17.40;;;15.60;99.90;;;;;;5013053;28;19929;-74
2023/10/27 12:30:14;;;;;;;10.23;9.30;;;15.60;99.90;;;;;;5006769;28;20435;-74
2023/10/27 12:32:42;;;;;;;15.75;14.07;;;15.60;99.90;;;;;;4983273;28;20060;-74
2023/10/27 12:35:11;;;;;;;12.10;11.25;;;15.50;99.90;;;;;;5023092;28;20561;-74
2023/10/27 12:37:39;;;;;;;9.32;8.60;;;15.50;99.90;;;;;;4992130;28;20500;-75
2023/10/27 12:40:11;;;;;;;16.73;15.45;;;15.40;99.90;;;;;;5007410;28;20060;-74
2023/10/27 12:42:40;;;;;;;6.20;5.57;;;15.40;99.90;;;;;;5007990;28;20053;-73